Pagrindinis puslapis
METAR-TAF:

METAR-TAF

Oro uostai :

Kanzas Sitis, Misūris, Jungtinės Amerikos Valstijos

platuma: 39-17-50N, ilguma: 094-43-50W, Aukštis: 312 m

Dabartinis oras

Ataskaita buvo paskelbta 23 minutes, ne 03:53 UTC
Vėjas 11 kt iš Pietų
Temperatūra 8°C
Drėgmė 57%
Slėgis 1018 hPa
Matomumas: 16.1 km
Išsisklaidę debesys ne aukštis 15000 ft

METAR: KMCI 230353Z 19011KT 10SM SCT150 08/00 A3005 RMK AO2 SLP178 T00780000

Laikas: 22:16 (04:16 UTC)

Prognozė

Ataskaita buvo paskelbta 4 valandos ir 32 minutes, ne 23:44 UTC
Prognozė galioja nuo 23 metu 00 UTC su 23 metu 24 UTC
Vėjas 10 kt iš Pietų
Matomumas: 10 km
Išsisklaidę debesys ne aukštis 20000 ft
Nuo 23 metu 1200 UTC
Vėjas 9 kt iš Pietų/Pietvakarių
Matomumas: 10 km
Išsisklaidę debesys ne aukštis 15000 ft
Nuo 23 metu 2000 UTC
Vėjas 3 kt nuo kintamojo kryptimis
Matomumas: 10 km
Su prošvaistėmis ne aukštis 15000 ft

TAF: KMCI 222344Z 2300/2324 19010KT P6SM SCT200 FM231200 20009KT P6SM SCT150 FM232000 VRB03KT P6SM BKN150

Orai ataskaitas ir orų prognozės (METAR, TAF).

turimą stotys yra geltonos ir raudonos taškus žemėlapyje.

Perkelti pele per norėdami pamatyti stoties vardą.

Tada spustelėkite, norėdami matyti oro stebėjimo ir prognozės.

Norėdami pakeisti žemėlapį: spustelėkite ant žalios mygtukų su juodo kryžiaus žemyn,; žalią mygtuką su brūkšneliu, jei norite nutolinti; arba žalių rodyklių gretimoms žemėlapius.


METAR-TAF: